sensor_id;sensor_type;location;lat;lon;timestamp;temperature;humidity
42615;DHT22;28754;47.700;7.924;2023-11-21T00:00:46;6.50;99.90
42615;DHT22;28754;47.700;7.924;2023-11-21T00:03:32;6.50;99.90
42615;DHT22;28754;47.700;7.924;2023-11-21T00:06:19;6.40;99.90
42615;DHT22;28754;47.700;7.924;2023-11-21T00:09:06;6.50;99.90
42615;DHT22;28754;47.700;7.924;2023-11-21T00:11:54;6.40;99.90
42615;DHT22;28754;47.700;7.924;2023-11-21T00:14:41;6.50;99.90
42615;DHT22;28754;47.700;7.924;2023-11-21T00:17:28;6.40;99.90
42615;DHT22;28754;47.700;7.924;2023-11-21T00:20:15;6.50;99.90
42615;DHT22;28754;47.700;7.924;2023-11-21T00:23:02;6.50;99.90
42615;DHT22;28754;47.700;7.924;2023-11-21T00:25:48;6.50;99.90
42615;DHT22;28754;47.700;7.924;2023-11-21T00:28:35;6.40;99.90
42615;DHT22;28754;47.700;7.924;2023-11-21T00:31:22;6.30;99.90
42615;DHT22;28754;47.700;7.924;2023-11-21T00:34:09;6.30;99.90
42615;DHT22;28754;47.700;7.924;2023-11-21T00:36:55;6.30;99.90
42615;DHT22;28754;47.700;7.924;2023-11-21T00:39:42;6.30;99.90
42615;DHT22;28754;47.700;7.924;2023-11-21T00:42:29;6.30;99.90
42615;DHT22;28754;47.700;7.924;2023-11-21T00:45:15;6.30;99.90
42615;DHT22;28754;47.700;7.924;2023-11-21T00:48:03;6.40;99.90
42615;DHT22;28754;47.700;7.924;2023-11-21T00:50:51;6.30;99.90
42615;DHT22;28754;47.700;7.924;2023-11-21T00:53:37;6.30;99.90
42615;DHT22;28754;47.700;7.924;2023-11-21T00:56:24;6.20;99.90
42615;DHT22;28754;47.700;7.924;2023-11-21T00:59:11;6.20;99.90
42615;DHT22;28754;47.700;7.924;2023-11-21T01:01:57;6.20;99.90
42615;DHT22;28754;47.700;7.924;2023-11-21T01:04:46;6.20;99.90
42615;DHT22;28754;47.700;7.924;2023-11-21T01:07:34;6.20;99.90
42615;DHT22;28754;47.700;7.924;2023-11-21T01:10:20;6.20;99.90
42615;DHT22;28754;47.700;7.924;2023-11-21T01:13:07;6.20;99.90
42615;DHT22;28754;47.700;7.924;2023-11-21T01:15:54;6.20;99.90
42615;DHT22;28754;47.700;7.924;2023-11-21T01:18:41;6.10;99.90
42615;DHT22;28754;47.700;7.924;2023-11-21T01:21:28;6.10;99.90
42615;DHT22;28754;47.700;7.924;2023-11-21T01:24:15;6.00;99.90
42615;DHT22;28754;47.700;7.924;2023-11-21T01:27:03;6.10;99.90
42615;DHT22;28754;47.700;7.924;2023-11-21T01:29:50;6.00;99.90
42615;DHT22;28754;47.700;7.924;2023-11-21T01:32:39;6.00;99.90
42615;DHT22;28754;47.700;7.924;2023-11-21T01:35:26;6.00;99.90
42615;DHT22;28754;47.700;7.924;2023-11-21T01:38:13;6.00;99.90
42615;DHT22;28754;47.700;7.924;2023-11-21T01:41:01;6.00;99.90
42615;DHT22;28754;47.700;7.924;2023-11-21T01:43:48;6.00;99.90
42615;DHT22;28754;47.700;7.924;2023-11-21T01:46:35;6.10;99.90
42615;DHT22;28754;47.700;7.924;2023-11-21T01:49:24;6.10;99.90
42615;DHT22;28754;47.700;7.924;2023-11-21T01:52:11;6.00;99.90
42615;DHT22;28754;47.700;7.924;2023-11-21T01:54:59;6.00;99.90
42615;DHT22;28754;47.700;7.924;2023-11-21T01:57:47;6.10;99.90
42615;DHT22;28754;47.700;7.924;2023-11-21T02:00:35;6.00;99.90
42615;DHT22;28754;47.700;7.924;2023-11-21T02:03:21;5.90;99.90
42615;DHT22;28754;47.700;7.924;2023-11-21T02:06:08;6.00;99.90
42615;DHT22;28754;47.700;7.924;2023-11-21T02:08:55;6.10;99.90
42615;DHT22;28754;47.700;7.924;2023-11-21T02:11:42;6.10;99.90
42615;DHT22;28754;47.700;7.924;2023-11-21T02:14:28;6.10;99.90
42615;DHT22;28754;47.700;7.924;2023-11-21T02:17:15;6.10;99.90
42615;DHT22;28754;47.700;7.924;2023-11-21T02:20:02;6.10;99.90
42615;DHT22;28754;47.700;7.924;2023-11-21T02:22:53;6.10;99.90
42615;DHT22;28754;47.700;7.924;2023-11-21T02:25:44;6.10;99.90
42615;DHT22;28754;47.700;7.924;2023-11-21T02:28:31;6.20;99.90
42615;DHT22;28754;47.700;7.924;2023-11-21T02:31:17;6.20;99.90
42615;DHT22;28754;47.700;7.924;2023-11-21T02:34:05;6.20;99.90
42615;DHT22;28754;47.700;7.924;2023-11-21T02:36:52;6.20;99.90
42615;DHT22;28754;47.700;7.924;2023-11-21T02:39:38;6.20;99.90
42615;DHT22;28754;47.700;7.924;2023-11-21T02:42:25;6.20;99.90
42615;DHT22;28754;47.700;7.924;2023-11-21T02:45:13;6.20;99.90
42615;DHT22;28754;47.700;7.924;2023-11-21T02:48:03;6.20;99.90
42615;DHT22;28754;47.700;7.924;2023-11-21T02:50:51;6.20;99.90
42615;DHT22;28754;47.700;7.924;2023-11-21T02:53:39;6.20;99.90
42615;DHT22;28754;47.700;7.924;2023-11-21T02:56:26;6.20;99.90
42615;DHT22;28754;47.700;7.924;2023-11-21T03:03:04;6.20;99.90
42615;DHT22;28754;47.700;7.924;2023-11-21T03:05:51;6.30;99.90
42615;DHT22;28754;47.700;7.924;2023-11-21T03:08:37;6.10;99.90
42615;DHT22;28754;47.700;7.924;2023-11-21T03:11:24;6.20;99.90
42615;DHT22;28754;47.700;7.924;2023-11-21T03:14:11;6.20;99.90
42615;DHT22;28754;47.700;7.924;2023-11-21T03:16:57;6.30;99.90
42615;DHT22;28754;47.700;7.924;2023-11-21T03:19:44;6.20;99.90
42615;DHT22;28754;47.700;7.924;2023-11-21T03:22:31;6.00;99.90
42615;DHT22;28754;47.700;7.924;2023-11-21T03:25:19;6.10;99.90
42615;DHT22;28754;47.700;7.924;2023-11-21T03:28:05;6.20;99.90
42615;DHT22;28754;47.700;7.924;2023-11-21T03:30:52;6.20;99.90
42615;DHT22;28754;47.700;7.924;2023-11-21T03:33:39;6.30;99.90
42615;DHT22;28754;47.700;7.924;2023-11-21T03:36:25;6.20;99.90
42615;DHT22;28754;47.700;7.924;2023-11-21T03:39:13;6.30;99.90
42615;DHT22;28754;47.700;7.924;2023-11-21T03:41:59;6.30;99.90
42615;DHT22;28754;47.700;7.924;2023-11-21T03:44:46;6.30;99.90
42615;DHT22;28754;47.700;7.924;2023-11-21T03:47:34;6.40;99.90
42615;DHT22;28754;47.700;7.924;2023-11-21T03:50:21;6.30;99.90
42615;DHT22;28754;47.700;7.924;2023-11-21T03:53:07;6.20;99.90
42615;DHT22;28754;47.700;7.924;2023-11-21T03:55:54;6.20;99.90
42615;DHT22;28754;47.700;7.924;2023-11-21T03:58:41;6.20;99.90
42615;DHT22;28754;47.700;7.924;2023-11-21T04:01:27;6.20;99.90
42615;DHT22;28754;47.700;7.924;2023-11-21T04:04:14;6.10;99.90
42615;DHT22;28754;47.700;7.924;2023-11-21T04:07:01;6.10;99.90
42615;DHT22;28754;47.700;7.924;2023-11-21T04:09:47;6.10;99.90
42615;DHT22;28754;47.700;7.924;2023-11-21T04:12:35;6.10;99.90
42615;DHT22;28754;47.700;7.924;2023-11-21T04:15:22;6.00;99.90
42615;DHT22;28754;47.700;7.924;2023-11-21T04:18:09;6.10;99.90
42615;DHT22;28754;47.700;7.924;2023-11-21T04:20:56;6.00;99.90
42615;DHT22;28754;47.700;7.924;2023-11-21T04:23:43;6.00;99.90
42615;DHT22;28754;47.700;7.924;2023-11-21T04:26:29;6.00;99.90
42615;DHT22;28754;47.700;7.924;2023-11-21T04:29:16;6.00;99.90
42615;DHT22;28754;47.700;7.924;2023-11-21T04:32:03;6.00;99.90
42615;DHT22;28754;47.700;7.924;2023-11-21T04:34:50;6.00;99.90
42615;DHT22;28754;47.700;7.924;2023-11-21T04:37:37;6.00;99.90
42615;DHT22;28754;47.700;7.924;2023-11-21T04:40:23;6.10;99.90
42615;DHT22;28754;47.700;7.924;2023-11-21T04:43:10;6.00;99.90
42615;DHT22;28754;47.700;7.924;2023-11-21T04:45:56;6.10;99.90
42615;DHT22;28754;47.700;7.924;2023-11-21T04:48:43;6.10;99.90
42615;DHT22;28754;47.700;7.924;2023-11-21T04:51:30;6.00;99.90
42615;DHT22;28754;47.700;7.924;2023-11-21T04:54:18;6.00;99.90
42615;DHT22;28754;47.700;7.924;2023-11-21T04:57:05;6.00;99.90
42615;DHT22;28754;47.700;7.924;2023-11-21T04:59:53;6.00;99.90
42615;DHT22;28754;47.700;7.924;2023-11-21T05:02:40;5.90;99.90
42615;DHT22;28754;47.700;7.924;2023-11-21T05:05:30;6.00;99.90
42615;DHT22;28754;47.700;7.924;2023-11-21T05:08:17;6.00;99.90
42615;DHT22;28754;47.700;7.924;2023-11-21T05:11:05;6.10;99.90
42615;DHT22;28754;47.700;7.924;2023-11-21T05:13:53;6.10;99.90
42615;DHT22;28754;47.700;7.924;2023-11-21T05:16:42;6.10;99.90
42615;DHT22;28754;47.700;7.924;2023-11-21T05:19:28;6.10;99.90
42615;DHT22;28754;47.700;7.924;2023-11-21T05:22:15;6.10;99.90
42615;DHT22;28754;47.700;7.924;2023-11-21T05:25:03;6.20;99.90
42615;DHT22;28754;47.700;7.924;2023-11-21T05:27:50;6.10;99.90
42615;DHT22;28754;47.700;7.924;2023-11-21T05:30:36;6.20;99.90
42615;DHT22;28754;47.700;7.924;2023-11-21T05:33:24;6.20;99.90
42615;DHT22;28754;47.700;7.924;2023-11-21T05:36:11;6.20;99.90
42615;DHT22;28754;47.700;7.924;2023-11-21T05:38:58;6.10;99.90
42615;DHT22;28754;47.700;7.924;2023-11-21T05:41:45;6.00;99.90
42615;DHT22;28754;47.700;7.924;2023-11-21T05:44:32;6.00;99.90
42615;DHT22;28754;47.700;7.924;2023-11-21T05:47:18;6.00;99.90
42615;DHT22;28754;47.700;7.924;2023-11-21T05:50:05;6.00;99.90
42615;DHT22;28754;47.700;7.924;2023-11-21T05:52:56;6.00;99.90
42615;DHT22;28754;47.700;7.924;2023-11-21T05:55:43;6.00;99.90
42615;DHT22;28754;47.700;7.924;2023-11-21T05:58:30;5.90;99.90
42615;DHT22;28754;47.700;7.924;2023-11-21T06:01:16;6.00;99.90
42615;DHT22;28754;47.700;7.924;2023-11-21T06:04:03;6.00;99.90
42615;DHT22;28754;47.700;7.924;2023-11-21T06:06:51;6.00;99.90
42615;DHT22;28754;47.700;7.924;2023-11-21T06:09:39;6.00;99.90
42615;DHT22;28754;47.700;7.924;2023-11-21T06:12:25;6.00;99.90
42615;DHT22;28754;47.700;7.924;2023-11-21T06:15:12;6.10;99.90
42615;DHT22;28754;47.700;7.924;2023-11-21T06:17:59;5.90;99.90
42615;DHT22;28754;47.700;7.924;2023-11-21T06:20:46;5.90;99.90
42615;DHT22;28754;47.700;7.924;2023-11-21T06:23:33;5.90;99.90
42615;DHT22;28754;47.700;7.924;2023-11-21T06:26:20;6.00;99.90
42615;DHT22;28754;47.700;7.924;2023-11-21T06:29:06;6.10;99.90
42615;DHT22;28754;47.700;7.924;2023-11-21T06:31:53;6.00;99.90
42615;DHT22;28754;47.700;7.924;2023-11-21T06:34:41;5.90;99.90
42615;DHT22;28754;47.700;7.924;2023-11-21T06:37:29;6.00;99.90
42615;DHT22;28754;47.700;7.924;2023-11-21T06:40:17;6.00;99.90
42615;DHT22;28754;47.700;7.924;2023-11-21T06:43:04;6.00;99.90
42615;DHT22;28754;47.700;7.924;2023-11-21T06:45:53;6.10;99.90
42615;DHT22;28754;47.700;7.924;2023-11-21T06:48:42;6.10;99.90
42615;DHT22;28754;47.700;7.924;2023-11-21T06:51:29;6.20;99.90
42615;DHT22;28754;47.700;7.924;2023-11-21T06:54:16;6.20;99.90
42615;DHT22;28754;47.700;7.924;2023-11-21T06:57:03;6.20;99.90
42615;DHT22;28754;47.700;7.924;2023-11-21T06:59:49;6.20;99.90
42615;DHT22;28754;47.700;7.924;2023-11-21T07:02:39;6.20;99.90
42615;DHT22;28754;47.700;7.924;2023-11-21T07:05:25;6.10;99.90
42615;DHT22;28754;47.700;7.924;2023-11-21T07:08:12;6.10;99.90
42615;DHT22;28754;47.700;7.924;2023-11-21T07:10:59;6.20;99.90
42615;DHT22;28754;47.700;7.924;2023-11-21T07:13:45;6.20;99.90
42615;DHT22;28754;47.700;7.924;2023-11-21T07:16:35;6.10;99.90
42615;DHT22;28754;47.700;7.924;2023-11-21T07:19:23;6.20;99.90
42615;DHT22;28754;47.700;7.924;2023-11-21T07:22:11;6.10;99.90
42615;DHT22;28754;47.700;7.924;2023-11-21T07:24:57;6.10;99.90
42615;DHT22;28754;47.700;7.924;2023-11-21T07:27:44;6.00;99.90
42615;DHT22;28754;47.700;7.924;2023-11-21T07:30:31;6.10;99.90
42615;DHT22;28754;47.700;7.924;2023-11-21T07:33:18;6.20;99.90
42615;DHT22;28754;47.700;7.924;2023-11-21T07:36:05;6.30;99.90
42615;DHT22;28754;47.700;7.924;2023-11-21T07:38:53;6.20;99.90
42615;DHT22;28754;47.700;7.924;2023-11-21T07:41:40;6.10;99.90
42615;DHT22;28754;47.700;7.924;2023-11-21T07:44:31;6.00;99.90
42615;DHT22;28754;47.700;7.924;2023-11-21T07:47:18;6.20;99.90
42615;DHT22;28754;47.700;7.924;2023-11-21T07:50:05;6.20;99.90
42615;DHT22;28754;47.700;7.924;2023-11-21T07:52:53;6.20;99.90
42615;DHT22;28754;47.700;7.924;2023-11-21T07:55:40;6.10;99.90
42615;DHT22;28754;47.700;7.924;2023-11-21T07:58:27;6.10;99.90
42615;DHT22;28754;47.700;7.924;2023-11-21T08:01:14;6.10;99.90
42615;DHT22;28754;47.700;7.924;2023-11-21T08:04:01;6.10;99.90
42615;DHT22;28754;47.700;7.924;2023-11-21T08:06:49;6.20;99.90
42615;DHT22;28754;47.700;7.924;2023-11-21T08:09:36;6.20;99.90
42615;DHT22;28754;47.700;7.924;2023-11-21T08:12:22;6.20;99.90
42615;DHT22;28754;47.700;7.924;2023-11-21T08:15:10;6.30;99.90
42615;DHT22;28754;47.700;7.924;2023-11-21T08:17:57;6.50;99.90
42615;DHT22;28754;47.700;7.924;2023-11-21T08:20:45;6.80;99.90
42615;DHT22;28754;47.700;7.924;2023-11-21T08:23:34;7.20;99.90
42615;DHT22;28754;47.700;7.924;2023-11-21T08:26:24;7.60;99.90
42615;DHT22;28754;47.700;7.924;2023-11-21T08:29:11;7.60;99.90
42615;DHT22;28754;47.700;7.924;2023-11-21T08:31:58;7.50;99.90
42615;DHT22;28754;47.700;7.924;2023-11-21T08:34:46;7.70;99.90
42615;DHT22;28754;47.700;7.924;2023-11-21T08:37:35;7.80;99.90
42615;DHT22;28754;47.700;7.924;2023-11-21T08:40:25;7.70;99.90
42615;DHT22;28754;47.700;7.924;2023-11-21T08:43:12;7.60;99.90
42615;DHT22;28754;47.700;7.924;2023-11-21T08:46:00;7.40;99.90
42615;DHT22;28754;47.700;7.924;2023-11-21T08:48:49;7.40;99.90
42615;DHT22;28754;47.700;7.924;2023-11-21T08:51:38;7.40;99.90
42615;DHT22;28754;47.700;7.924;2023-11-21T08:54:26;7.40;99.90
42615;DHT22;28754;47.700;7.924;2023-11-21T08:57:12;7.50;99.90
42615;DHT22;28754;47.700;7.924;2023-11-21T08:59:59;7.40;99.90
42615;DHT22;28754;47.700;7.924;2023-11-21T09:02:46;7.00;99.90
42615;DHT22;28754;47.700;7.924;2023-11-21T09:05:33;7.10;99.90
42615;DHT22;28754;47.700;7.924;2023-11-21T09:08:19;7.20;99.90
42615;DHT22;28754;47.700;7.924;2023-11-21T09:11:08;7.30;99.90
42615;DHT22;28754;47.700;7.924;2023-11-21T09:13:54;7.30;99.90
42615;DHT22;28754;47.700;7.924;2023-11-21T09:16:41;7.20;99.90
42615;DHT22;28754;47.700;7.924;2023-11-21T09:19:29;7.30;99.90
42615;DHT22;28754;47.700;7.924;2023-11-21T09:22:17;7.10;99.90
42615;DHT22;28754;47.700;7.924;2023-11-21T09:25:04;7.10;99.90
42615;DHT22;28754;47.700;7.924;2023-11-21T09:27:51;7.00;99.90
42615;DHT22;28754;47.700;7.924;2023-11-21T09:30:38;7.00;99.90
42615;DHT22;28754;47.700;7.924;2023-11-21T09:33:24;7.20;99.90
42615;DHT22;28754;47.700;7.924;2023-11-21T09:36:12;7.10;99.90
42615;DHT22;28754;47.700;7.924;2023-11-21T09:39:02;7.10;99.90
42615;DHT22;28754;47.700;7.924;2023-11-21T09:41:57;7.20;99.90
42615;DHT22;28754;47.700;7.924;2023-11-21T09:47:56;7.50;99.90
42615;DHT22;28754;47.700;7.924;2023-11-21T09:50:44;7.40;99.90
42615;DHT22;28754;47.700;7.924;2023-11-21T09:53:34;7.40;99.90
42615;DHT22;28754;47.700;7.924;2023-11-21T09:56:21;7.50;99.90
42615;DHT22;28754;47.700;7.924;2023-11-21T09:59:13;7.50;99.90
42615;DHT22;28754;47.700;7.924;2023-11-21T10:02:02;7.30;99.90
42615;DHT22;28754;47.700;7.924;2023-11-21T10:04:52;7.30;99.90
42615;DHT22;28754;47.700;7.924;2023-11-21T10:07:39;7.30;99.90
42615;DHT22;28754;47.700;7.924;2023-11-21T10:10:30;7.30;99.90
42615;DHT22;28754;47.700;7.924;2023-11-21T10:13:21;7.30;99.90
42615;DHT22;28754;47.700;7.924;2023-11-21T10:16:09;7.20;99.90
42615;DHT22;28754;47.700;7.924;2023-11-21T10:19:00;7.10;99.90
42615;DHT22;28754;47.700;7.924;2023-11-21T10:21:47;7.30;99.90
42615;DHT22;28754;47.700;7.924;2023-11-21T10:24:35;7.30;99.90
42615;DHT22;28754;47.700;7.924;2023-11-21T10:27:23;7.30;99.90
42615;DHT22;28754;47.700;7.924;2023-11-21T10:30:13;7.20;99.90
42615;DHT22;28754;47.700;7.924;2023-11-21T10:33:06;7.10;99.90
42615;DHT22;28754;47.700;7.924;2023-11-21T10:35:57;7.20;99.90
42615;DHT22;28754;47.700;7.924;2023-11-21T10:38:44;7.10;99.90
42615;DHT22;28754;47.700;7.924;2023-11-21T10:41:32;7.10;99.90
42615;DHT22;28754;47.700;7.924;2023-11-21T10:44:19;7.20;99.90
42615;DHT22;28754;47.700;7.924;2023-11-21T10:47:10;7.30;99.90
42615;DHT22;28754;47.700;7.924;2023-11-21T10:50:00;7.40;99.90
42615;DHT22;28754;47.700;7.924;2023-11-21T10:52:47;7.40;99.90
42615;DHT22;28754;47.700;7.924;2023-11-21T10:55:34;7.50;99.90
42615;DHT22;28754;47.700;7.924;2023-11-21T10:58:21;7.50;99.90
42615;DHT22;28754;47.700;7.924;2023-11-21T11:01:08;7.60;99.90
42615;DHT22;28754;47.700;7.924;2023-11-21T11:03:59;7.70;99.90
42615;DHT22;28754;47.700;7.924;2023-11-21T11:07:02;7.50;99.90
42615;DHT22;28754;47.700;7.924;2023-11-21T11:09:50;7.40;99.90
42615;DHT22;28754;47.700;7.924;2023-11-21T11:12:37;7.10;99.90
42615;DHT22;28754;47.700;7.924;2023-11-21T11:15:25;7.20;99.90
42615;DHT22;28754;47.700;7.924;2023-11-21T11:18:13;7.30;99.90
42615;DHT22;28754;47.700;7.924;2023-11-21T11:21:27;7.40;99.90
42615;DHT22;28754;47.700;7.924;2023-11-21T11:24:50;7.40;99.90
42615;DHT22;28754;47.700;7.924;2023-11-21T11:28:04;7.60;99.90
42615;DHT22;28754;47.700;7.924;2023-11-21T11:33:57;7.60;99.90
42615;DHT22;28754;47.700;7.924;2023-11-21T11:37:16;7.50;99.90
42615;DHT22;28754;47.700;7.924;2023-11-21T11:40:06;7.70;99.90
42615;DHT22;28754;47.700;7.924;2023-11-21T11:42:57;7.50;99.90
42615;DHT22;28754;47.700;7.924;2023-11-21T11:45:51;7.60;99.90
42615;DHT22;28754;47.700;7.924;2023-11-21T11:48:39;7.70;99.90
42615;DHT22;28754;47.700;7.924;2023-11-21T11:51:26;7.50;99.90
42615;DHT22;28754;47.700;7.924;2023-11-21T11:54:13;7.50;99.90
42615;DHT22;28754;47.700;7.924;2023-11-21T11:57:00;7.30;99.90
42615;DHT22;28754;47.700;7.924;2023-11-21T12:00:12;7.30;99.90
42615;DHT22;28754;47.700;7.924;2023-11-21T12:03:03;7.20;99.90
42615;DHT22;28754;47.700;7.924;2023-11-21T12:05:51;7.30;99.90
42615;DHT22;28754;47.700;7.924;2023-11-21T12:08:44;7.20;99.90
42615;DHT22;28754;47.700;7.924;2023-11-21T12:11:32;7.10;99.90
42615;DHT22;28754;47.700;7.924;2023-11-21T12:14:18;7.00;99.90
42615;DHT22;28754;47.700;7.924;2023-11-21T12:17:05;7.20;99.90
42615;DHT22;28754;47.700;7.924;2023-11-21T12:19:52;7.20;99.90
42615;DHT22;28754;47.700;7.924;2023-11-21T12:22:39;7.20;99.90
42615;DHT22;28754;47.700;7.924;2023-11-21T12:25:47;7.00;99.90
42615;DHT22;28754;47.700;7.924;2023-11-21T12:28:35;7.30;99.90
42615;DHT22;28754;47.700;7.924;2023-11-21T12:31:24;7.60;99.90
42615;DHT22;28754;47.700;7.924;2023-11-21T12:34:11;7.70;99.90
42615;DHT22;28754;47.700;7.924;2023-11-21T12:36:59;7.70;99.90
42615;DHT22;28754;47.700;7.924;2023-11-21T12:39:46;7.70;99.90
42615;DHT22;28754;47.700;7.924;2023-11-21T12:42:33;7.80;99.90
42615;DHT22;28754;47.700;7.924;2023-11-21T12:45:26;7.50;99.90
42615;DHT22;28754;47.700;7.924;2023-11-21T12:48:13;7.70;99.90
42615;DHT22;28754;47.700;7.924;2023-11-21T12:51:01;7.90;99.90
42615;DHT22;28754;47.700;7.924;2023-11-21T12:53:50;8.00;99.90
42615;DHT22;28754;47.700;7.924;2023-11-21T12:56:40;8.00;99.90
42615;DHT22;28754;47.700;7.924;2023-11-21T12:59:26;8.10;99.90
42615;DHT22;28754;47.700;7.924;2023-11-21T13:02:13;8.10;99.90
42615;DHT22;28754;47.700;7.924;2023-11-21T13:05:01;8.20;99.90
42615;DHT22;28754;47.700;7.924;2023-11-21T13:07:53;8.20;99.90
42615;DHT22;28754;47.700;7.924;2023-11-21T13:10:45;8.40;99.90
42615;DHT22;28754;47.700;7.924;2023-11-21T13:13:33;8.60;99.90
42615;DHT22;28754;47.700;7.924;2023-11-21T13:16:19;9.00;99.90
42615;DHT22;28754;47.700;7.924;2023-11-21T13:19:07;9.10;99.90
42615;DHT22;28754;47.700;7.924;2023-11-21T13:21:55;9.00;99.90
42615;DHT22;28754;47.700;7.924;2023-11-21T13:24:41;9.00;99.90
42615;DHT22;28754;47.700;7.924;2023-11-21T13:27:29;8.80;99.90
42615;DHT22;28754;47.700;7.924;2023-11-21T13:30:17;8.50;99.90
42615;DHT22;28754;47.700;7.924;2023-11-21T13:33:09;8.40;99.90
42615;DHT22;28754;47.700;7.924;2023-11-21T13:35:58;8.20;99.90
42615;DHT22;28754;47.700;7.924;2023-11-21T13:38:45;8.10;99.90
42615;DHT22;28754;47.700;7.924;2023-11-21T13:41:32;7.90;99.90
42615;DHT22;28754;47.700;7.924;2023-11-21T13:44:19;8.00;99.90
42615;DHT22;28754;47.700;7.924;2023-11-21T13:47:21;7.80;99.90
42615;DHT22;28754;47.700;7.924;2023-11-21T13:50:11;7.70;99.90
42615;DHT22;28754;47.700;7.924;2023-11-21T13:53:11;7.80;99.90
42615;DHT22;28754;47.700;7.924;2023-11-21T13:56:07;7.90;99.90
42615;DHT22;28754;47.700;7.924;2023-11-21T13:58:55;7.70;99.90
42615;DHT22;28754;47.700;7.924;2023-11-21T14:01:42;7.60;99.90
42615;DHT22;28754;47.700;7.924;2023-11-21T14:04:41;7.50;99.90
42615;DHT22;28754;47.700;7.924;2023-11-21T14:07:41;7.50;99.90
42615;DHT22;28754;47.700;7.924;2023-11-21T14:10:34;7.60;99.90
42615;DHT22;28754;47.700;7.924;2023-11-21T14:13:29;7.60;99.90
42615;DHT22;28754;47.700;7.924;2023-11-21T14:16:16;7.40;99.90
42615;DHT22;28754;47.700;7.924;2023-11-21T14:19:05;7.40;99.90
42615;DHT22;28754;47.700;7.924;2023-11-21T14:22:04;7.30;99.90
42615;DHT22;28754;47.700;7.924;2023-11-21T14:24:54;7.20;99.90
42615;DHT22;28754;47.700;7.924;2023-11-21T14:27:43;7.10;99.90
42615;DHT22;28754;47.700;7.924;2023-11-21T14:30:30;7.10;99.90
42615;DHT22;28754;47.700;7.924;2023-11-21T14:33:21;7.20;99.90
42615;DHT22;28754;47.700;7.924;2023-11-21T14:36:09;7.20;99.90
42615;DHT22;28754;47.700;7.924;2023-11-21T14:38:56;7.10;99.90
42615;DHT22;28754;47.700;7.924;2023-11-21T14:41:43;7.10;99.90
42615;DHT22;28754;47.700;7.924;2023-11-21T14:44:31;7.10;99.90
42615;DHT22;28754;47.700;7.924;2023-11-21T14:47:21;7.10;99.90
42615;DHT22;28754;47.700;7.924;2023-11-21T14:50:13;7.00;99.90
42615;DHT22;28754;47.700;7.924;2023-11-21T14:53:19;7.00;99.90
42615;DHT22;28754;47.700;7.924;2023-11-21T14:56:26;7.00;99.90
42615;DHT22;28754;47.700;7.924;2023-11-21T14:59:16;7.00;99.90
42615;DHT22;28754;47.700;7.924;2023-11-21T15:02:03;6.90;99.90
42615;DHT22;28754;47.700;7.924;2023-11-21T15:05:00;6.90;99.90
42615;DHT22;28754;47.700;7.924;2023-11-21T15:07:48;7.00;99.90
42615;DHT22;28754;47.700;7.924;2023-11-21T15:10:36;6.90;99.90
42615;DHT22;28754;47.700;7.924;2023-11-21T15:13:32;6.80;99.90
42615;DHT22;28754;47.700;7.924;2023-11-21T15:16:20;6.80;99.90
42615;DHT22;28754;47.700;7.924;2023-11-21T15:19:07;6.80;99.90
42615;DHT22;28754;47.700;7.924;2023-11-21T15:21:55;6.80;99.90
42615;DHT22;28754;47.700;7.924;2023-11-21T15:24:43;6.80;99.90
42615;DHT22;28754;47.700;7.924;2023-11-21T15:27:32;6.80;99.90
42615;DHT22;28754;47.700;7.924;2023-11-21T15:30:19;6.70;99.90
42615;DHT22;28754;47.700;7.924;2023-11-21T15:33:10;6.60;99.90
42615;DHT22;28754;47.700;7.924;2023-11-21T15:35:58;6.60;99.90
42615;DHT22;28754;47.700;7.924;2023-11-21T15:38:45;6.60;99.90
42615;DHT22;28754;47.700;7.924;2023-11-21T15:41:32;6.60;99.90
42615;DHT22;28754;47.700;7.924;2023-11-21T15:44:18;6.50;99.90
42615;DHT22;28754;47.700;7.924;2023-11-21T15:47:05;6.50;99.90
42615;DHT22;28754;47.700;7.924;2023-11-21T15:49:54;6.60;99.90
42615;DHT22;28754;47.700;7.924;2023-11-21T15:52:41;6.70;99.90
42615;DHT22;28754;47.700;7.924;2023-11-21T15:55:30;6.70;99.90
42615;DHT22;28754;47.700;7.924;2023-11-21T15:58:17;6.80;99.90
42615;DHT22;28754;47.700;7.924;2023-11-21T16:01:03;6.70;99.90
42615;DHT22;28754;47.700;7.924;2023-11-21T16:03:50;6.70;99.90
42615;DHT22;28754;47.700;7.924;2023-11-21T16:06:37;6.80;99.90
42615;DHT22;28754;47.700;7.924;2023-11-21T16:09:27;6.80;99.90
42615;DHT22;28754;47.700;7.924;2023-11-21T16:12:16;6.70;99.90
42615;DHT22;28754;47.700;7.924;2023-11-21T16:15:06;6.70;99.90
42615;DHT22;28754;47.700;7.924;2023-11-21T16:17:57;6.60;99.90
42615;DHT22;28754;47.700;7.924;2023-11-21T16:20:44;6.60;99.90
42615;DHT22;28754;47.700;7.924;2023-11-21T16:23:31;6.60;99.90
42615;DHT22;28754;47.700;7.924;2023-11-21T16:26:17;6.60;99.90
42615;DHT22;28754;47.700;7.924;2023-11-21T16:29:04;6.50;99.90
42615;DHT22;28754;47.700;7.924;2023-11-21T16:31:51;6.50;99.90
42615;DHT22;28754;47.700;7.924;2023-11-21T16:34:38;6.50;99.90
42615;DHT22;28754;47.700;7.924;2023-11-21T16:37:26;6.50;99.90
42615;DHT22;28754;47.700;7.924;2023-11-21T16:40:13;6.50;99.90
42615;DHT22;28754;47.700;7.924;2023-11-21T16:42:59;6.50;99.90
42615;DHT22;28754;47.700;7.924;2023-11-21T16:45:47;6.40;99.90
42615;DHT22;28754;47.700;7.924;2023-11-21T16:48:38;6.40;99.90
42615;DHT22;28754;47.700;7.924;2023-11-21T16:51:24;6.40;99.90
42615;DHT22;28754;47.700;7.924;2023-11-21T16:54:12;6.40;99.90
42615;DHT22;28754;47.700;7.924;2023-11-21T16:57:00;6.40;99.90
42615;DHT22;28754;47.700;7.924;2023-11-21T16:59:49;6.40;99.90
42615;DHT22;28754;47.700;7.924;2023-11-21T17:02:38;6.50;99.90
42615;DHT22;28754;47.700;7.924;2023-11-21T17:05:31;6.40;99.90
42615;DHT22;28754;47.700;7.924;2023-11-21T17:12:23;6.40;99.90
42615;DHT22;28754;47.700;7.924;2023-11-21T17:20:06;6.40;99.90
42615;DHT22;28754;47.700;7.924;2023-11-21T17:23:45;6.40;99.90
42615;DHT22;28754;47.700;7.924;2023-11-21T17:27:46;6.40;99.90
42615;DHT22;28754;47.700;7.924;2023-11-21T17:30:42;6.50;99.90
42615;DHT22;28754;47.700;7.924;2023-11-21T17:33:37;6.60;99.90
42615;DHT22;28754;47.700;7.924;2023-11-21T17:37:13;6.60;99.90
42615;DHT22;28754;47.700;7.924;2023-11-21T17:40:00;6.60;99.90
42615;DHT22;28754;47.700;7.924;2023-11-21T17:42:47;6.70;99.90
42615;DHT22;28754;47.700;7.924;2023-11-21T17:45:47;6.70;99.90
42615;DHT22;28754;47.700;7.924;2023-11-21T17:48:47;6.70;99.90
42615;DHT22;28754;47.700;7.924;2023-11-21T17:51:46;6.70;99.90
42615;DHT22;28754;47.700;7.924;2023-11-21T17:54:41;6.70;99.90
42615;DHT22;28754;47.700;7.924;2023-11-21T17:57:44;6.70;99.90
42615;DHT22;28754;47.700;7.924;2023-11-21T18:00:47;6.80;99.90
42615;DHT22;28754;47.700;7.924;2023-11-21T18:03:43;6.80;99.90
42615;DHT22;28754;47.700;7.924;2023-11-21T18:06:39;6.70;99.90
42615;DHT22;28754;47.700;7.924;2023-11-21T18:09:31;6.70;99.90
42615;DHT22;28754;47.700;7.924;2023-11-21T18:12:43;6.70;99.90
42615;DHT22;28754;47.700;7.924;2023-11-21T18:15:57;6.70;99.90
42615;DHT22;28754;47.700;7.924;2023-11-21T18:22:24;6.80;99.90
42615;DHT22;28754;47.700;7.924;2023-11-21T18:25:11;6.80;99.90
42615;DHT22;28754;47.700;7.924;2023-11-21T18:27:58;6.80;99.90